sensor_id;sensor_type;location;lat;lon;timestamp;pressure;altitude;pressure_sealevel;temperature;humidity
6899;BME280;3488;42.616;23.350;2022-11-18T00:01:47;63009.91;;;9.79;100.00
6899;BME280;3488;42.616;23.350;2022-11-18T00:04:14;63000.69;;;9.75;100.00
6899;BME280;3488;42.616;23.350;2022-11-18T00:06:41;63004.22;;;9.73;100.00
6899;BME280;3488;42.616;23.350;2022-11-18T00:09:08;63006.28;;;9.75;100.00
6899;BME280;3488;42.616;23.350;2022-11-18T00:11:37;63004.72;;;9.74;100.00
6899;BME280;3488;42.616;23.350;2022-11-18T00:14:24;63002.19;;;9.74;100.00
6899;BME280;3488;42.616;23.350;2022-11-18T00:16:54;62989.78;;;9.62;100.00
6899;BME280;3488;42.616;23.350;2022-11-18T00:19:23;62977.00;;;9.57;100.00
6899;BME280;3488;42.616;23.350;2022-11-18T00:21:51;62992.38;;;9.64;100.00
6899;BME280;3488;42.616;23.350;2022-11-18T00:24:18;62991.31;;;9.61;100.00
6899;BME280;3488;42.616;23.350;2022-11-18T00:26:46;62989.78;;;9.62;100.00
6899;BME280;3488;42.616;23.350;2022-11-18T00:29:14;62992.31;;;9.62;100.00
6899;BME280;3488;42.616;23.350;2022-11-18T00:31:41;62982.63;;;9.60;100.00
6899;BME280;3488;42.616;23.350;2022-11-18T00:34:10;62988.69;;;9.58;100.00
6899;BME280;3488;42.616;23.350;2022-11-18T00:36:37;62987.22;;;9.59;100.00
6899;BME280;3488;42.616;23.350;2022-11-18T00:39:04;62978.97;;;9.54;100.00
6899;BME280;3488;42.616;23.350;2022-11-18T00:41:31;62972.28;;;9.50;100.00
6899;BME280;3488;42.616;23.350;2022-11-18T00:44:13;62978.41;;;9.51;100.00
6899;BME280;3488;42.616;23.350;2022-11-18T00:46:40;62953.69;;;9.31;100.00
6899;BME280;3488;42.616;23.350;2022-11-18T00:49:07;62963.47;;;9.39;100.00
6899;BME280;3488;42.616;23.350;2022-11-18T00:51:35;62958.25;;;9.31;100.00
6899;BME280;3488;42.616;23.350;2022-11-18T00:54:02;62960.31;;;9.33;100.00
6899;BME280;3488;42.616;23.350;2022-11-18T00:58:55;62965.53;;;9.41;100.00
6899;BME280;3488;42.616;23.350;2022-11-18T01:01:24;62961.34;;;9.34;100.00
6899;BME280;3488;42.616;23.350;2022-11-18T01:03:51;62964.41;;;9.34;100.00
6899;BME280;3488;42.616;23.350;2022-11-18T01:06:19;62968.63;;;9.44;100.00
6899;BME280;3488;42.616;23.350;2022-11-18T01:08:46;62950.50;;;9.23;100.00
6899;BME280;3488;42.616;23.350;2022-11-18T01:11:13;62962.91;;;9.35;100.00
6899;BME280;3488;42.616;23.350;2022-11-18T01:13:57;62951.16;;;9.31;100.00
6899;BME280;3488;42.616;23.350;2022-11-18T01:16:26;62954.72;;;9.32;100.00
6899;BME280;3488;42.616;23.350;2022-11-18T01:18:54;62959.38;;;9.37;100.00
6899;BME280;3488;42.616;23.350;2022-11-18T01:21:21;62967.00;;;9.37;100.00
6899;BME280;3488;42.616;23.350;2022-11-18T01:23:48;62970.13;;;9.43;100.00
6899;BME280;3488;42.616;23.350;2022-11-18T01:26:16;62971.75;;;9.47;100.00
6899;BME280;3488;42.616;23.350;2022-11-18T01:28:43;62969.66;;;9.45;100.00
6899;BME280;3488;42.616;23.350;2022-11-18T01:31:13;62974.28;;;9.47;100.00
6899;BME280;3488;42.616;23.350;2022-11-18T01:33:42;62979.88;;;9.47;100.00
6899;BME280;3488;42.616;23.350;2022-11-18T01:36:15;62975.31;;;9.48;100.00
6899;BME280;3488;42.616;23.350;2022-11-18T01:38:42;62982.06;;;9.57;100.00
6899;BME280;3488;42.616;23.350;2022-11-18T01:41:09;62975.88;;;9.51;100.00
6899;BME280;3488;42.616;23.350;2022-11-18T01:43:48;62982.00;;;9.52;100.00
6899;BME280;3488;42.616;23.350;2022-11-18T01:46:16;62976.38;;;9.51;100.00
6899;BME280;3488;42.616;23.350;2022-11-18T01:48:46;62971.69;;;9.44;100.00
6899;BME280;3488;42.616;23.350;2022-11-18T01:51:15;62965.50;;;9.38;100.00
6899;BME280;3488;42.616;23.350;2022-11-18T01:53:46;62955.63;;;9.26;100.00
6899;BME280;3488;42.616;23.350;2022-11-18T01:56:19;62954.63;;;9.27;100.00
6899;BME280;3488;42.616;23.350;2022-11-18T01:58:51;62948.53;;;9.26;100.00
6899;BME280;3488;42.616;23.350;2022-11-18T02:01:19;62960.31;;;9.33;100.00
6899;BME280;3488;42.616;23.350;2022-11-18T02:03:48;62951.06;;;9.26;100.00
6899;BME280;3488;42.616;23.350;2022-11-18T02:06:17;62945.84;;;9.19;100.00
6899;BME280;3488;42.616;23.350;2022-11-18T02:08:44;62949.94;;;9.20;100.00
6899;BME280;3488;42.616;23.350;2022-11-18T02:11:13;62941.25;;;9.17;100.00
6899;BME280;3488;42.616;23.350;2022-11-18T02:13:55;62941.75;;;9.17;100.00
6899;BME280;3488;42.616;23.350;2022-11-18T02:16:27;62929.34;;;9.05;100.00
6899;BME280;3488;42.616;23.350;2022-11-18T02:19:00;62928.84;;;9.05;100.00
6899;BME280;3488;42.616;23.350;2022-11-18T02:21:41;62922.03;;;8.93;100.00
6899;BME280;3488;42.616;23.350;2022-11-18T02:24:25;62916.91;;;8.91;100.00
6899;BME280;3488;42.616;23.350;2022-11-18T02:30:04;62896.78;;;8.74;100.00
6899;BME280;3488;42.616;23.350;2022-11-18T02:32:35;62893.69;;;8.71;100.00
6899;BME280;3488;42.616;23.350;2022-11-18T02:35:08;62893.66;;;8.68;100.00
6899;BME280;3488;42.616;23.350;2022-11-18T02:37:43;62888.53;;;8.66;100.00
6899;BME280;3488;42.616;23.350;2022-11-18T02:40:14;62882.38;;;8.62;100.00
6899;BME280;3488;42.616;23.350;2022-11-18T02:42:45;62878.72;;;8.56;100.00
6899;BME280;3488;42.616;23.350;2022-11-18T02:45:18;62873.44;;;8.44;100.00
6899;BME280;3488;42.616;23.350;2022-11-18T02:47:48;62876.59;;;8.52;100.00
6899;BME280;3488;42.616;23.350;2022-11-18T02:50:18;62873.44;;;8.44;100.00
6899;BME280;3488;42.616;23.350;2022-11-18T02:52:50;62880.75;;;8.56;100.00
6899;BME280;3488;42.616;23.350;2022-11-18T02:55:19;62894.16;;;8.69;100.00
6899;BME280;3488;42.616;23.350;2022-11-18T02:57:48;62886.94;;;8.62;100.00
6899;BME280;3488;42.616;23.350;2022-11-18T03:00:17;62881.31;;;8.59;100.00
6899;BME280;3488;42.616;23.350;2022-11-18T03:02:45;62880.75;;;8.56;100.00
6899;BME280;3488;42.616;23.350;2022-11-18T03:05:17;62899.38;;;8.76;100.00
6899;BME280;3488;42.616;23.350;2022-11-18T03:07:49;62900.41;;;8.77;100.00
6899;BME280;3488;42.616;23.350;2022-11-18T03:10:18;62906.00;;;8.78;100.00
6899;BME280;3488;42.616;23.350;2022-11-18T03:12:54;62906.63;;;8.83;100.00
6899;BME280;3488;42.616;23.350;2022-11-18T03:15:33;62910.13;;;8.82;100.00
6899;BME280;3488;42.616;23.350;2022-11-18T03:18:09;62906.09;;;8.83;100.00
6899;BME280;3488;42.616;23.350;2022-11-18T03:20:43;62912.25;;;8.86;100.00
6899;BME280;3488;42.616;23.350;2022-11-18T03:23:20;62904.50;;;8.79;100.00
6899;BME280;3488;42.616;23.350;2022-11-18T03:25:51;62909.19;;;8.86;100.00
6899;BME280;3488;42.616;23.350;2022-11-18T03:28:23;62903.56;;;8.83;100.00
6899;BME280;3488;42.616;23.350;2022-11-18T03:30:55;62910.72;;;8.85;100.00
6899;BME280;3488;42.616;23.350;2022-11-18T03:33:30;62910.19;;;8.84;100.00
6899;BME280;3488;42.616;23.350;2022-11-18T03:36:01;62912.28;;;8.89;100.00
6899;BME280;3488;42.616;23.350;2022-11-18T03:38:32;62922.66;;;8.99;100.00
6899;BME280;3488;42.616;23.350;2022-11-18T03:41:04;62922.69;;;9.01;100.00
6899;BME280;3488;42.616;23.350;2022-11-18T03:43:36;62930.84;;;9.04;100.00
6899;BME280;3488;42.616;23.350;2022-11-18T03:46:08;62923.63;;;8.97;100.00
6899;BME280;3488;42.616;23.350;2022-11-18T03:48:43;62926.69;;;8.98;100.00
6899;BME280;3488;42.616;23.350;2022-11-18T03:51:17;62927.72;;;8.99;100.00
6899;BME280;3488;42.616;23.350;2022-11-18T03:53:52;62921.13;;;9.00;100.00
6899;BME280;3488;42.616;23.350;2022-11-18T03:56:27;62913.81;;;8.88;100.00
6899;BME280;3488;42.616;23.350;2022-11-18T03:58:58;62924.69;;;9.01;100.00
6899;BME280;3488;42.616;23.350;2022-11-18T04:01:33;62944.78;;;9.15;100.00
6899;BME280;3488;42.616;23.350;2022-11-18T04:04:01;62939.22;;;9.17;100.00
6899;BME280;3488;42.616;23.350;2022-11-18T04:06:33;62949.38;;;9.17;100.00
6899;BME280;3488;42.616;23.350;2022-11-18T04:09:05;62943.22;;;9.14;100.00
6899;BME280;3488;42.616;23.350;2022-11-18T04:11:39;62934.56;;;9.13;100.00
6899;BME280;3488;42.616;23.350;2022-11-18T04:14:26;62914.88;;;8.91;100.00
6899;BME280;3488;42.616;23.350;2022-11-18T04:16:55;62926.22;;;9.00;100.00
6899;BME280;3488;42.616;23.350;2022-11-18T04:19:22;62923.63;;;8.97;100.00
6899;BME280;3488;42.616;23.350;2022-11-18T04:21:50;62897.78;;;8.72;100.00
6899;BME280;3488;42.616;23.350;2022-11-18T04:24:17;62903.50;;;8.80;100.00
6899;BME280;3488;42.616;23.350;2022-11-18T04:26:44;62895.78;;;8.73;100.00
6899;BME280;3488;42.616;23.350;2022-11-18T04:29:11;62896.75;;;8.71;100.00
6899;BME280;3488;42.616;23.350;2022-11-18T04:31:38;62896.31;;;8.76;100.00
6899;BME280;3488;42.616;23.350;2022-11-18T04:34:07;62887.47;;;8.62;100.00
6899;BME280;3488;42.616;23.350;2022-11-18T04:36:34;62886.50;;;8.66;100.00
6899;BME280;3488;42.616;23.350;2022-11-18T04:39:01;62892.09;;;8.67;100.00
6899;BME280;3488;42.616;23.350;2022-11-18T04:41:28;62893.66;;;8.68;100.00
6899;BME280;3488;42.616;23.350;2022-11-18T04:44:10;62903.94;;;8.76;100.00
6899;BME280;3488;42.616;23.350;2022-11-18T04:46:39;62903.03;;;8.82;100.00
6899;BME280;3488;42.616;23.350;2022-11-18T04:49:09;62907.13;;;8.84;100.00
6899;BME280;3488;42.616;23.350;2022-11-18T04:51:37;62899.88;;;8.77;100.00
6899;BME280;3488;42.616;23.350;2022-11-18T04:54:04;62887.03;;;8.67;100.00
6899;BME280;3488;42.616;23.350;2022-11-18T04:56:32;62880.88;;;8.63;100.00
6899;BME280;3488;42.616;23.350;2022-11-18T04:58:59;62897.78;;;8.72;100.00
6899;BME280;3488;42.616;23.350;2022-11-18T05:01:27;62889.63;;;8.69;100.00
6899;BME280;3488;42.616;23.350;2022-11-18T05:03:55;62886.94;;;8.62;100.00
6899;BME280;3488;42.616;23.350;2022-11-18T05:06:23;62885.38;;;8.60;100.00
6899;BME280;3488;42.616;23.350;2022-11-18T05:08:50;62889.47;;;8.62;100.00
6899;BME280;3488;42.616;23.350;2022-11-18T05:11:17;62876.66;;;8.54;100.00
6899;BME280;3488;42.616;23.350;2022-11-18T05:14:01;62855.47;;;8.34;100.00
6899;BME280;3488;42.616;23.350;2022-11-18T05:16:28;62868.28;;;8.41;100.00
6899;BME280;3488;42.616;23.350;2022-11-18T05:18:55;62870.31;;;8.41;100.00
6899;BME280;3488;42.616;23.350;2022-11-18T05:21:24;62839.44;;;8.18;100.00
6899;BME280;3488;42.616;23.350;2022-11-18T05:23:51;62819.31;;;7.98;100.00
6899;BME280;3488;42.616;23.350;2022-11-18T05:26:18;62780.56;;;7.58;100.00
6899;BME280;3488;42.616;23.350;2022-11-18T05:28:45;62763.63;;;7.47;100.00
6899;BME280;3488;42.616;23.350;2022-11-18T05:31:14;62771.16;;;7.44;100.00
6899;BME280;3488;42.616;23.350;2022-11-18T05:33:42;62739.34;;;7.23;100.00
6899;BME280;3488;42.616;23.350;2022-11-18T05:36:11;62746.50;;;7.25;100.00
6899;BME280;3488;42.616;23.350;2022-11-18T05:38:40;62755.84;;;7.37;100.00
6899;BME280;3488;42.616;23.350;2022-11-18T05:41:07;62757.38;;;7.38;100.00
6899;BME280;3488;42.616;23.350;2022-11-18T05:43:55;62759.84;;;7.36;100.00
6899;BME280;3488;42.616;23.350;2022-11-18T05:46:22;62772.84;;;7.53;100.00
6899;BME280;3488;42.616;23.350;2022-11-18T05:48:49;62782.16;;;7.62;100.00
6899;BME280;3488;42.616;23.350;2022-11-18T05:51:16;62793.97;;;7.71;100.00
6899;BME280;3488;42.616;23.350;2022-11-18T05:53:45;62803.78;;;7.81;100.00
6899;BME280;3488;42.616;23.350;2022-11-18T05:56:18;62802.31;;;7.84;100.00
6899;BME280;3488;42.616;23.350;2022-11-18T05:58:46;62813.69;;;7.95;100.00
6899;BME280;3488;42.616;23.350;2022-11-18T06:01:16;62828.50;;;8.02;100.00
6899;BME280;3488;42.616;23.350;2022-11-18T06:03:47;62833.25;;;8.12;100.00
6899;BME280;3488;42.616;23.350;2022-11-18T06:06:16;62843.53;;;8.19;100.00
6899;BME280;3488;42.616;23.350;2022-11-18T06:08:50;62841.00;;;8.19;100.00
6899;BME280;3488;42.616;23.350;2022-11-18T06:11:19;62864.72;;;8.40;100.00
6899;BME280;3488;42.616;23.350;2022-11-18T06:13:49;62866.91;;;8.47;100.00
6899;BME280;3488;42.616;23.350;2022-11-18T06:16:21;62887.50;;;8.65;100.00
6899;BME280;3488;42.616;23.350;2022-11-18T06:18:50;62875.00;;;8.48;100.00
6899;BME280;3488;42.616;23.350;2022-11-18T06:21:18;62882.91;;;8.63;100.00
6899;BME280;3488;42.616;23.350;2022-11-18T06:23:46;62889.47;;;8.62;100.00
6899;BME280;3488;42.616;23.350;2022-11-18T06:26:14;62908.22;;;8.87;100.00
6899;BME280;3488;42.616;23.350;2022-11-18T06:28:43;62930.84;;;9.04;100.00
6899;BME280;3488;42.616;23.350;2022-11-18T06:31:11;62938.56;;;9.09;100.00
6899;BME280;3488;42.616;23.350;2022-11-18T06:33:38;62946.94;;;9.22;100.00
6899;BME280;3488;42.616;23.350;2022-11-18T06:36:05;62963.94;;;9.37;100.00
6899;BME280;3488;42.616;23.350;2022-11-18T06:38:32;62990.34;;;9.65;100.00
6899;BME280;3488;42.616;23.350;2022-11-18T06:41:01;63012.06;;;9.86;100.00
6899;BME280;3488;42.616;23.350;2022-11-18T06:43:28;63048.81;;;10.21;100.00
6899;BME280;3488;42.616;23.350;2022-11-18T06:46:04;63063.22;;;10.30;100.00
6899;BME280;3488;42.616;23.350;2022-11-18T06:48:54;63068.47;;;10.40;100.00
6899;BME280;3488;42.616;23.350;2022-11-18T06:51:22;63062.25;;;10.34;100.00
6899;BME280;3488;42.616;23.350;2022-11-18T06:53:50;63078.31;;;10.50;100.00
6899;BME280;3488;42.616;23.350;2022-11-18T06:56:20;63079.81;;;10.49;100.00
6899;BME280;3488;42.616;23.350;2022-11-18T06:58:52;63074.16;;;10.46;100.00
6899;BME280;3488;42.616;23.350;2022-11-18T07:01:20;63066.88;;;10.36;100.00
6899;BME280;3488;42.616;23.350;2022-11-18T07:03:48;63045.13;;;10.13;100.00
6899;BME280;3488;42.616;23.350;2022-11-18T07:06:16;63064.81;;;10.34;100.00
6899;BME280;3488;42.616;23.350;2022-11-18T07:08:44;63061.22;;;10.33;100.00
6899;BME280;3488;42.616;23.350;2022-11-18T07:11:12;63054.47;;;10.24;100.00
6899;BME280;3488;42.616;23.350;2022-11-18T07:13:42;63012.50;;;9.81;100.00
6899;BME280;3488;42.616;23.350;2022-11-18T07:16:10;63004.25;;;9.76;100.00
6899;BME280;3488;42.616;23.350;2022-11-18T07:18:39;63006.84;;;9.78;100.00
6899;BME280;3488;42.616;23.350;2022-11-18T07:21:09;63031.63;;;10.00;100.00
6899;BME280;3488;42.616;23.350;2022-11-18T07:23:37;63052.94;;;10.25;100.00
6899;BME280;3488;42.616;23.350;2022-11-18T07:26:04;63058.03;;;10.25;100.00
6899;BME280;3488;42.616;23.350;2022-11-18T07:28:32;63064.75;;;10.32;100.00
6899;BME280;3488;42.616;23.350;2022-11-18T07:31:01;63058.09;;;10.28;100.00
6899;BME280;3488;42.616;23.350;2022-11-18T07:33:29;63056.00;;;10.26;100.00
6899;BME280;3488;42.616;23.350;2022-11-18T07:35:59;63065.84;;;10.35;100.00
6899;BME280;3488;42.616;23.350;2022-11-18T07:38:27;63074.69;;;10.46;100.00
6899;BME280;3488;42.616;23.350;2022-11-18T07:40:55;63100.53;;;10.72;100.00
6899;BME280;3488;42.616;23.350;2022-11-18T07:43:22;63123.81;;;10.92;100.00
6899;BME280;3488;42.616;23.350;2022-11-18T07:45:49;63119.06;;;10.82;100.00
6899;BME280;3488;42.616;23.350;2022-11-18T07:48:17;63104.66;;;10.73;100.00
6899;BME280;3488;42.616;23.350;2022-11-18T07:50:44;63128.97;;;10.97;100.00
6899;BME280;3488;42.616;23.350;2022-11-18T07:53:11;63141.97;;;11.12;100.00
6899;BME280;3488;42.616;23.350;2022-11-18T07:55:38;63135.22;;;11.05;100.00
6899;BME280;3488;42.616;23.350;2022-11-18T07:58:05;63118.19;;;10.91;100.00
6899;BME280;3488;42.616;23.350;2022-11-18T08:00:32;63133.16;;;11.03;100.00
6899;BME280;3488;42.616;23.350;2022-11-18T08:02:59;63141.97;;;11.12;100.00
6899;BME280;3488;42.616;23.350;2022-11-18T08:05:27;63146.63;;;11.16;100.00
6899;BME280;3488;42.616;23.350;2022-11-18T08:07:54;63166.25;;;11.33;100.00
6899;BME280;3488;42.616;23.350;2022-11-18T08:10:21;63146.09;;;11.16;100.00
6899;BME280;3488;42.616;23.350;2022-11-18T08:12:49;63115.03;;;10.86;100.00
6899;BME280;3488;42.616;23.350;2022-11-18T08:15:16;63117.13;;;10.88;100.00
6899;BME280;3488;42.616;23.350;2022-11-18T08:17:43;63084.50;;;10.56;100.00
6899;BME280;3488;42.616;23.350;2022-11-18T08:20:10;63116.50;;;10.82;100.00
6899;BME280;3488;42.616;23.350;2022-11-18T08:22:39;63079.91;;;10.54;100.00
6899;BME280;3488;42.616;23.350;2022-11-18T08:25:07;63068.44;;;10.38;100.00
6899;BME280;3488;42.616;23.350;2022-11-18T08:27:34;63093.22;;;10.60;100.00
6899;BME280;3488;42.616;23.350;2022-11-18T08:30:01;63117.09;;;10.85;100.00
6899;BME280;3488;42.616;23.350;2022-11-18T08:32:28;63128.50;;;10.99;100.00
6899;BME280;3488;42.616;23.350;2022-11-18T08:34:56;63142.97;;;11.10;100.00
6899;BME280;3488;42.616;23.350;2022-11-18T08:37:22;63117.16;;;10.90;100.00
6899;BME280;3488;42.616;23.350;2022-11-18T08:39:51;63154.34;;;11.21;100.00
6899;BME280;3488;42.616;23.350;2022-11-18T08:42:18;63176.06;;;11.40;100.00
6899;BME280;3488;42.616;23.350;2022-11-18T08:44:46;63175.16;;;11.46;100.00
6899;BME280;3488;42.616;23.350;2022-11-18T08:47:13;63186.97;;;11.53;100.00
6899;BME280;3488;42.616;23.350;2022-11-18T08:49:40;63201.50;;;11.67;100.00
6899;BME280;3488;42.616;23.350;2022-11-18T08:52:07;63217.03;;;11.82;100.00
6899;BME280;3488;42.616;23.350;2022-11-18T08:54:35;63227.44;;;11.95;100.00
6899;BME280;3488;42.616;23.350;2022-11-18T08:57:03;63218.59;;;11.84;100.00
6899;BME280;3488;42.616;23.350;2022-11-18T08:59:30;63222.78;;;11.90;100.00
6899;BME280;3488;42.616;23.350;2022-11-18T09:01:57;63241.91;;;12.06;100.00
6899;BME280;3488;42.616;23.350;2022-11-18T09:04:24;63257.00;;;12.23;100.00
6899;BME280;3488;42.616;23.350;2022-11-18T09:06:51;63254.34;;;12.18;100.00
6899;BME280;3488;42.616;23.350;2022-11-18T09:09:18;63299.50;;;12.64;100.00
6899;BME280;3488;42.616;23.350;2022-11-18T09:11:45;63321.75;;;12.84;100.00
6899;BME280;3488;42.616;23.350;2022-11-18T09:14:13;63339.94;;;13.04;100.00
6899;BME280;3488;42.616;23.350;2022-11-18T09:16:40;63369.44;;;13.27;100.00
6899;BME280;3488;42.616;23.350;2022-11-18T09:19:07;63396.47;;;13.56;100.00
6899;BME280;3488;42.616;23.350;2022-11-18T09:21:34;63445.28;;;14.06;100.00
6899;BME280;3488;42.616;23.350;2022-11-18T09:24:03;63400.59;;;13.60;100.00
6899;BME280;3488;42.616;23.350;2022-11-18T09:26:30;63348.25;;;13.12;100.00
6899;BME280;3488;42.616;23.350;2022-11-18T09:28:57;63361.66;;;13.20;100.00
6899;BME280;3488;42.616;23.350;2022-11-18T09:31:27;63351.84;;;13.13;100.00
6899;BME280;3488;42.616;23.350;2022-11-18T09:33:58;63368.94;;;13.29;100.00
6899;BME280;3488;42.616;23.350;2022-11-18T09:36:28;63319.66;;;12.82;100.00
6899;BME280;3488;42.616;23.350;2022-11-18T09:38:58;63310.81;;;12.70;100.00
6899;BME280;3488;42.616;23.350;2022-11-18T09:41:39;63292.75;;;12.58;100.00
6899;BME280;3488;42.616;23.350;2022-11-18T09:44:16;63317.13;;;12.82;100.00
6899;BME280;3488;42.616;23.350;2022-11-18T09:47:01;63355.03;;;13.21;100.00
6899;BME280;3488;42.616;23.350;2022-11-18T09:49:32;63337.31;;;13.01;100.00
6899;BME280;3488;42.616;23.350;2022-11-18T09:52:09;63322.78;;;12.85;100.00
6899;BME280;3488;42.616;23.350;2022-11-18T09:54:37;63345.13;;;13.09;100.00
6899;BME280;3488;42.616;23.350;2022-11-18T09:57:12;63382.47;;;13.45;100.00
6899;BME280;3488;42.616;23.350;2022-11-18T09:59:40;63379.31;;;13.39;100.00
6899;BME280;3488;42.616;23.350;2022-11-18T10:02:29;63405.28;;;13.64;100.00
6899;BME280;3488;42.616;23.350;2022-11-18T10:05:12;63442.56;;;13.96;100.00
6899;BME280;3488;42.616;23.350;2022-11-18T10:07:45;63394.34;;;13.51;100.00
6899;BME280;3488;42.616;23.350;2022-11-18T10:10:20;63413.50;;;13.67;100.00
6899;BME280;3488;42.616;23.350;2022-11-18T10:12:53;63396.94;;;13.54;100.00
6899;BME280;3488;42.616;23.350;2022-11-18T10:15:27;63414.09;;;13.73;100.00
6899;BME280;3488;42.616;23.350;2022-11-18T10:18:06;63464.41;;;14.19;100.00
6899;BME280;3488;42.616;23.350;2022-11-18T10:20:50;63480.56;;;14.37;100.00
6899;BME280;3488;42.616;23.350;2022-11-18T10:23:26;63459.75;;;14.15;100.00
6899;BME280;3488;42.616;23.350;2022-11-18T10:25:55;63461.38;;;14.21;100.00
6899;BME280;3488;42.616;23.350;2022-11-18T10:28:24;63473.31;;;14.33;100.00
6899;BME280;3488;42.616;23.350;2022-11-18T10:30:54;63489.38;;;14.46;100.00
6899;BME280;3488;42.616;23.350;2022-11-18T10:33:30;63512.78;;;14.71;100.00
6899;BME280;3488;42.616;23.350;2022-11-18T10:36:18;63511.16;;;14.64;100.00
6899;BME280;3488;42.616;23.350;2022-11-18T10:39:04;63541.34;;;14.96;100.00
6899;BME280;3488;42.616;23.350;2022-11-18T10:41:37;63549.66;;;15.06;100.00
6899;BME280;3488;42.616;23.350;2022-11-18T10:44:05;63565.22;;;15.19;98.55
6899;BME280;3488;42.616;23.350;2022-11-18T10:46:52;63576.66;;;15.30;98.50
6899;BME280;3488;42.616;23.350;2022-11-18T10:49:22;63600.06;;;15.53;95.00
6899;BME280;3488;42.616;23.350;2022-11-18T10:52:06;63631.28;;;15.85;92.85
6899;BME280;3488;42.616;23.350;2022-11-18T10:54:34;63611.50;;;15.64;90.61
6899;BME280;3488;42.616;23.350;2022-11-18T10:57:05;63608.31;;;15.56;94.62
6899;BME280;3488;42.616;23.350;2022-11-18T10:59:34;63628.63;;;15.78;92.17
6899;BME280;3488;42.616;23.350;2022-11-18T11:02:15;63626.59;;;15.81;93.81
6899;BME280;3488;42.616;23.350;2022-11-18T11:04:46;63630.75;;;15.85;87.33
6899;BME280;3488;42.616;23.350;2022-11-18T11:07:16;63658.81;;;16.09;87.93
6899;BME280;3488;42.616;23.350;2022-11-18T11:09:43;63631.78;;;15.83;86.68
6899;BME280;3488;42.616;23.350;2022-11-18T11:12:14;63609.97;;;15.65;87.65
6899;BME280;3488;42.616;23.350;2022-11-18T11:14:48;63613.03;;;15.65;87.84
6899;BME280;3488;42.616;23.350;2022-11-18T11:17:20;63607.84;;;15.60;91.65
6899;BME280;3488;42.616;23.350;2022-11-18T11:19:58;63574.06;;;15.28;95.75
6899;BME280;3488;42.616;23.350;2022-11-18T11:22:27;63595.91;;;15.49;96.01
6899;BME280;3488;42.616;23.350;2022-11-18T11:24:55;63634.34;;;15.86;93.34
6899;BME280;3488;42.616;23.350;2022-11-18T11:27:41;63658.22;;;16.04;88.65
6899;BME280;3488;42.616;23.350;2022-11-18T11:30:20;63667.59;;;16.15;90.70
6899;BME280;3488;42.616;23.350;2022-11-18T11:33:09;63678.53;;;16.26;89.25
6899;BME280;3488;42.616;23.350;2022-11-18T11:35:46;63656.69;;;16.05;88.62
6899;BME280;3488;42.616;23.350;2022-11-18T11:38:34;63625.53;;;15.77;89.72
6899;BME280;3488;42.616;23.350;2022-11-18T11:41:14;63620.31;;;15.72;90.14
6899;BME280;3488;42.616;23.350;2022-11-18T11:43:57;63609.94;;;15.62;87.92
6899;BME280;3488;42.616;23.350;2022-11-18T11:46:41;63608.91;;;15.61;90.42
6899;BME280;3488;42.616;23.350;2022-11-18T11:49:43;63543.47;;;15.03;93.66
6899;BME280;3488;42.616;23.350;2022-11-18T11:52:19;63542.41;;;14.99;96.54
6899;BME280;3488;42.616;23.350;2022-11-18T11:54:53;63568.31;;;15.22;98.81
6899;BME280;3488;42.616;23.350;2022-11-18T11:57:30;63583.88;;;15.35;98.98
6899;BME280;3488;42.616;23.350;2022-11-18T12:00:03;63590.16;;;15.41;97.12
6899;BME280;3488;42.616;23.350;2022-11-18T12:02:46;63588.06;;;15.39;96.42
6899;BME280;3488;42.616;23.350;2022-11-18T12:05:21;63590.66;;;15.41;95.12
6899;BME280;3488;42.616;23.350;2022-11-18T12:07:53;63555.31;;;15.07;94.71
6899;BME280;3488;42.616;23.350;2022-11-18T12:10:28;63548.06;;;15.02;97.03
6899;BME280;3488;42.616;23.350;2022-11-18T12:13:05;63517.44;;;14.73;94.29
6899;BME280;3488;42.616;23.350;2022-11-18T12:15:46;63522.56;;;14.73;94.05
6899;BME280;3488;42.616;23.350;2022-11-18T12:18:20;63533.56;;;14.91;94.93
6899;BME280;3488;42.616;23.350;2022-11-18T12:20:53;63547.03;;;15.01;94.41
6899;BME280;3488;42.616;23.350;2022-11-18T12:23:23;63546.03;;;15.03;94.60
6899;BME280;3488;42.616;23.350;2022-11-18T12:25:57;63543.41;;;14.98;92.13
6899;BME280;3488;42.616;23.350;2022-11-18T12:28:27;63540.81;;;14.95;88.53
6899;BME280;3488;42.616;23.350;2022-11-18T12:31:29;63549.13;;;15.03;91.07
6899;BME280;3488;42.616;23.350;2022-11-18T12:33:59;63552.19;;;15.04;88.93
6899;BME280;3488;42.616;23.350;2022-11-18T12:36:29;63500.31;;;14.59;91.16
6899;BME280;3488;42.616;23.350;2022-11-18T12:38:58;63513.34;;;14.74;92.64
6899;BME280;3488;42.616;23.350;2022-11-18T12:41:52;63514.81;;;14.70;94.39
6899;BME280;3488;42.616;23.350;2022-11-18T12:44:38;63528.88;;;14.84;93.87
6899;BME280;3488;42.616;23.350;2022-11-18T12:47:05;63542.88;;;14.97;95.41
6899;BME280;3488;42.616;23.350;2022-11-18T12:52:47;63477.44;;;14.34;96.44
6899;BME280;3488;42.616;23.350;2022-11-18T12:55:20;63496.66;;;14.53;97.63
6899;BME280;3488;42.616;23.350;2022-11-18T12:57:48;63505.44;;;14.59;96.64
6899;BME280;3488;42.616;23.350;2022-11-18T13:00:17;63507.00;;;14.60;96.68
6899;BME280;3488;42.616;23.350;2022-11-18T13:02:50;63502.41;;;14.61;94.95
6899;BME280;3488;42.616;23.350;2022-11-18T13:05:19;63496.69;;;14.55;95.14
6899;BME280;3488;42.616;23.350;2022-11-18T13:07:50;63508.06;;;14.61;95.44
6899;BME280;3488;42.616;23.350;2022-11-18T13:10:43;63495.66;;;14.54;94.43
6899;BME280;3488;42.616;23.350;2022-11-18T13:13:20;63493.06;;;14.52;96.56
6899;BME280;3488;42.616;23.350;2022-11-18T13:15:49;63491.47;;;14.48;97.77
6899;BME280;3488;42.616;23.350;2022-11-18T13:18:46;63486.81;;;14.46;96.52
6899;BME280;3488;42.616;23.350;2022-11-18T13:21:20;63483.19;;;14.42;95.58
6899;BME280;3488;42.616;23.350;2022-11-18T13:24:04;63482.19;;;14.44;94.86
6899;BME280;3488;42.616;23.350;2022-11-18T13:26:34;63485.81;;;14.47;94.97
6899;BME280;3488;42.616;23.350;2022-11-18T13:29:29;63488.38;;;14.47;96.46
6899;BME280;3488;42.616;23.350;2022-11-18T13:32:11;63483.75;;;14.45;91.71
6899;BME280;3488;42.616;23.350;2022-11-18T13:34:45;63487.84;;;14.44;91.81
6899;BME280;3488;42.616;23.350;2022-11-18T13:37:18;63491.97;;;14.48;93.28
6899;BME280;3488;42.616;23.350;2022-11-18T13:39:47;63507.53;;;14.61;91.73